createdAt,value
2022-12-23T00:00:30.589Z,0.00
2022-12-23T00:01:30.671Z,0.00
2022-12-23T00:02:30.720Z,0.00
2022-12-23T00:03:30.745Z,0.00
2022-12-23T00:04:30.571Z,0.00
2022-12-23T00:05:37.325Z,0.00
2022-12-23T00:06:31.527Z,0.00
2022-12-23T00:07:30.548Z,0.00
2022-12-23T00:08:30.535Z,0.00
2022-12-23T00:09:30.501Z,0.00
2022-12-23T00:10:30.486Z,0.00
2022-12-23T00:11:30.476Z,0.00
2022-12-23T00:12:30.468Z,0.00
2022-12-23T00:13:30.489Z,0.00
2022-12-23T00:14:30.447Z,0.00
2022-12-23T00:15:30.426Z,0.00
2022-12-23T00:16:30.508Z,0.00
2022-12-23T00:17:30.415Z,0.00
2022-12-23T00:18:30.408Z,0.00
2022-12-23T00:19:30.444Z,0.00
2022-12-23T00:20:30.407Z,0.00
2022-12-23T00:21:30.364Z,0.00
2022-12-23T00:22:30.356Z,0.00
2022-12-23T00:23:30.337Z,0.00
2022-12-23T00:24:30.332Z,0.00
2022-12-23T00:25:30.372Z,0.00
2022-12-23T00:26:30.310Z,0.00
2022-12-23T00:27:34.319Z,0.00
2022-12-23T00:28:31.289Z,0.00
2022-12-23T00:29:30.280Z,0.00
2022-12-23T00:30:30.276Z,0.00
2022-12-23T00:31:30.419Z,0.00
2022-12-23T00:32:30.246Z,0.00
2022-12-23T00:33:30.234Z,0.00
2022-12-23T00:34:30.233Z,0.00
2022-12-23T00:35:30.209Z,0.00
2022-12-23T00:36:30.392Z,0.00
2022-12-23T00:37:30.216Z,0.00
2022-12-23T00:38:30.191Z,0.00
2022-12-23T00:39:30.177Z,0.00
2022-12-23T00:40:30.165Z,0.00
2022-12-23T00:41:30.143Z,0.00
2022-12-23T00:42:30.155Z,0.00
2022-12-23T00:43:30.161Z,0.00
2022-12-23T00:44:30.153Z,0.00
2022-12-23T00:45:30.160Z,0.00
2022-12-23T00:46:30.150Z,0.00
2022-12-23T00:47:30.107Z,0.00
2022-12-23T00:48:30.073Z,0.00
2022-12-23T00:49:30.092Z,0.00
2022-12-23T00:50:30.047Z,0.00
2022-12-23T00:51:30.060Z,0.00
2022-12-23T00:52:30.057Z,0.00
2022-12-23T00:53:30.030Z,0.00
2022-12-23T00:54:30.013Z,0.00
2022-12-23T00:55:30.041Z,0.00
2022-12-23T00:56:29.987Z,0.00
2022-12-23T00:57:29.989Z,0.00
2022-12-23T00:58:29.963Z,0.00
2022-12-23T00:59:29.950Z,0.00
2022-12-23T01:00:29.941Z,0.00
2022-12-23T01:01:30.029Z,0.00
2022-12-23T01:02:30.053Z,0.00
2022-12-23T01:03:29.993Z,0.00
2022-12-23T01:04:29.899Z,0.00
2022-12-23T01:05:29.909Z,0.00
2022-12-23T01:06:29.893Z,0.00
2022-12-23T01:07:29.922Z,0.00
2022-12-23T01:08:29.878Z,0.00
2022-12-23T01:09:29.856Z,0.00
2022-12-23T01:10:29.845Z,0.00
2022-12-23T01:11:29.820Z,0.00
2022-12-23T01:12:29.823Z,0.00
2022-12-23T01:13:29.856Z,0.00
2022-12-23T01:14:29.801Z,0.00
2022-12-23T01:15:29.777Z,0.00
2022-12-23T01:16:29.890Z,0.00
2022-12-23T01:17:29.763Z,0.00
2022-12-23T01:18:29.758Z,0.00
2022-12-23T01:19:29.801Z,0.00
2022-12-23T01:20:29.748Z,0.00
2022-12-23T01:21:29.710Z,0.00
2022-12-23T01:22:29.708Z,0.00
2022-12-23T01:23:29.688Z,0.00
2022-12-23T01:24:29.704Z,0.00
2022-12-23T01:25:29.705Z,0.00
2022-12-23T01:26:29.672Z,0.00
2022-12-23T01:27:29.657Z,0.00
2022-12-23T01:28:29.639Z,0.00
2022-12-23T01:29:29.627Z,0.00
2022-12-23T01:30:29.627Z,0.00
2022-12-23T01:31:29.703Z,0.00
2022-12-23T01:32:29.608Z,0.00
2022-12-23T01:33:29.594Z,0.00
2022-12-23T01:34:36.007Z,0.00
2022-12-23T01:35:30.557Z,0.00
2022-12-23T01:36:29.553Z,0.00
2022-12-23T01:37:29.569Z,0.00
2022-12-23T01:38:29.547Z,0.00
2022-12-23T01:39:29.529Z,0.00
2022-12-23T01:40:29.585Z,0.00
2022-12-23T01:41:29.498Z,0.00
2022-12-23T01:42:29.488Z,0.00
2022-12-23T01:43:29.523Z,0.00
2022-12-23T01:44:29.475Z,0.00
2022-12-23T01:45:29.586Z,0.00
2022-12-23T01:46:29.533Z,0.00
2022-12-23T01:47:29.429Z,0.00
2022-12-23T01:48:29.423Z,0.00
2022-12-23T01:49:29.437Z,0.00
2022-12-23T01:50:29.423Z,0.00
2022-12-23T01:51:29.387Z,0.00
2022-12-23T01:52:29.405Z,0.00
2022-12-23T01:53:29.366Z,0.00
2022-12-23T01:54:29.356Z,0.00
2022-12-23T01:55:29.404Z,0.00
2022-12-23T01:56:29.360Z,0.00
2022-12-23T01:57:29.321Z,0.00
2022-12-23T01:58:29.333Z,0.00
2022-12-23T01:59:29.298Z,0.00
2022-12-23T02:00:29.295Z,0.00
2022-12-23T02:01:29.464Z,0.00
2022-12-23T02:02:29.414Z,0.00
2022-12-23T02:03:29.321Z,0.00
2022-12-23T02:04:29.258Z,0.00
2022-12-23T02:05:29.244Z,0.00
2022-12-23T02:06:29.236Z,0.00
2022-12-23T02:07:29.264Z,0.00
2022-12-23T02:08:29.240Z,0.00
2022-12-23T02:09:29.208Z,0.00
2022-12-23T02:10:29.184Z,0.00
2022-12-23T02:11:29.186Z,0.00
2022-12-23T02:12:29.210Z,0.00
2022-12-23T02:13:29.191Z,0.00
2022-12-23T02:14:29.140Z,0.00
2022-12-23T02:15:29.139Z,0.00
2022-12-23T02:16:29.273Z,0.00
2022-12-23T02:17:29.104Z,0.00
2022-12-23T02:18:29.129Z,0.00
2022-12-23T02:19:29.128Z,0.00
2022-12-23T02:20:29.073Z,0.00
2022-12-23T02:21:29.063Z,0.00
2022-12-23T02:22:29.058Z,0.00
2022-12-23T02:23:29.047Z,0.00
2022-12-23T02:24:29.041Z,0.00
2022-12-23T02:25:29.068Z,0.00
2022-12-23T02:26:29.012Z,0.00
2022-12-23T02:27:28.995Z,0.00
2022-12-23T02:28:29.024Z,0.00
2022-12-23T02:29:28.971Z,0.00
2022-12-23T02:30:29.176Z,0.00
2022-12-23T02:31:29.151Z,0.00
2022-12-23T02:32:28.945Z,0.00
2022-12-23T02:33:28.935Z,0.00
2022-12-23T02:34:28.950Z,0.00
2022-12-23T02:35:28.916Z,0.00
2022-12-23T02:36:28.899Z,0.00
2022-12-23T02:37:28.929Z,0.00
2022-12-23T02:38:28.885Z,0.00
2022-12-23T02:39:28.865Z,0.00
2022-12-23T02:40:28.861Z,0.00
2022-12-23T02:41:28.848Z,0.00
2022-12-23T02:42:28.835Z,0.00
2022-12-23T02:43:28.870Z,0.00
2022-12-23T02:44:28.837Z,0.00
2022-12-23T02:45:28.806Z,0.00
2022-12-23T02:46:28.874Z,0.00
2022-12-23T02:47:28.790Z,0.00
2022-12-23T02:48:28.773Z,0.00
2022-12-23T02:49:28.812Z,0.00
2022-12-23T02:50:28.748Z,0.00
2022-12-23T02:51:28.737Z,0.00
2022-12-23T02:52:28.728Z,0.00
2022-12-23T02:53:28.714Z,0.00
2022-12-23T02:54:28.721Z,0.00
2022-12-23T02:55:28.722Z,0.00
2022-12-23T02:56:28.683Z,0.00
2022-12-23T02:57:28.683Z,0.00
2022-12-23T02:58:28.664Z,0.00
2022-12-23T02:59:28.652Z,0.00
2022-12-23T03:00:28.793Z,0.00
2022-12-23T03:01:28.838Z,0.00
2022-12-23T03:02:28.810Z,0.00
2022-12-23T03:03:28.670Z,0.00
2022-12-23T03:04:28.595Z,0.00
2022-12-23T03:05:28.612Z,0.00
2022-12-23T03:06:28.573Z,0.00
2022-12-23T03:07:28.607Z,0.00
2022-12-23T03:08:28.551Z,0.00
2022-12-23T03:09:28.541Z,0.00
2022-12-23T03:10:28.529Z,0.00
2022-12-23T03:11:28.532Z,0.00
2022-12-23T03:12:28.512Z,0.00
2022-12-23T03:13:28.523Z,0.00
2022-12-23T03:14:28.486Z,0.00
2022-12-23T03:15:28.529Z,0.00
2022-12-23T03:16:28.552Z,0.00
2022-12-23T03:17:28.467Z,0.00
2022-12-23T03:18:28.457Z,0.00
2022-12-23T03:19:28.472Z,0.00
2022-12-23T03:20:28.434Z,0.00
2022-12-23T03:21:28.412Z,0.00
2022-12-23T03:22:28.398Z,0.00
2022-12-23T03:23:28.404Z,0.00
2022-12-23T03:24:28.378Z,0.00
2022-12-23T03:25:28.398Z,0.00
2022-12-23T03:26:28.364Z,0.00
2022-12-23T03:27:28.347Z,0.00
2022-12-23T03:28:28.333Z,0.00
2022-12-23T03:29:28.324Z,0.00
2022-12-23T03:30:28.311Z,0.00
2022-12-23T03:31:28.374Z,0.00
2022-12-23T03:32:28.347Z,0.00
2022-12-23T03:33:28.280Z,0.00
2022-12-23T03:34:28.266Z,0.00
2022-12-23T03:35:28.261Z,0.00
2022-12-23T03:36:28.254Z,0.00
2022-12-23T03:37:28.274Z,0.00
2022-12-23T03:38:28.223Z,0.00
2022-12-23T03:39:28.216Z,0.00
2022-12-23T03:40:28.216Z,0.00
2022-12-23T03:41:28.198Z,0.00
2022-12-23T03:42:28.189Z,0.00
2022-12-23T03:43:28.230Z,0.00
2022-12-23T03:44:28.157Z,0.00
2022-12-23T03:45:38.529Z,0.00
2022-12-23T03:46:29.212Z,0.00
2022-12-23T03:47:28.231Z,0.00
2022-12-23T03:48:28.139Z,0.00
2022-12-23T03:49:28.173Z,0.00
2022-12-23T03:50:28.094Z,0.00
2022-12-23T03:51:28.087Z,0.00
2022-12-23T03:52:28.072Z,0.00
2022-12-23T03:53:28.089Z,0.00
2022-12-23T03:54:28.050Z,0.00
2022-12-23T03:55:28.080Z,0.00
2022-12-23T03:56:28.027Z,0.00
2022-12-23T03:57:28.021Z,0.00
2022-12-23T03:58:28.006Z,0.00
2022-12-23T03:59:28.007Z,0.00
2022-12-23T04:00:27.992Z,0.00
2022-12-23T04:01:28.077Z,0.00
2022-12-23T04:02:28.234Z,0.00
2022-12-23T04:03:28.015Z,0.00
2022-12-23T04:04:27.990Z,0.00
2022-12-23T04:05:27.934Z,0.00
2022-12-23T04:06:27.919Z,0.00
2022-12-23T04:07:27.953Z,0.00
2022-12-23T04:08:27.913Z,0.00
2022-12-23T04:09:27.897Z,0.00
2022-12-23T04:10:27.875Z,0.00
2022-12-23T04:11:27.866Z,0.00
2022-12-23T04:12:27.855Z,0.00
2022-12-23T04:13:27.872Z,0.00
2022-12-23T04:14:27.841Z,0.00
2022-12-23T04:15:27.847Z,0.00
2022-12-23T04:16:27.909Z,0.00
2022-12-23T04:17:27.803Z,0.00
2022-12-23T04:18:27.813Z,0.00
2022-12-23T04:19:27.813Z,0.00
2022-12-23T04:20:27.809Z,0.00
2022-12-23T04:21:27.759Z,0.00
2022-12-23T04:22:27.744Z,0.00
2022-12-23T04:23:27.751Z,0.00
2022-12-23T04:24:27.744Z,0.00
2022-12-23T04:25:27.744Z,0.00
2022-12-23T04:26:27.720Z,0.00
2022-12-23T04:27:27.698Z,0.00
2022-12-23T04:28:27.683Z,0.00
2022-12-23T04:29:27.673Z,0.00
2022-12-23T04:30:33.570Z,0.00
2022-12-23T04:31:28.754Z,0.00
2022-12-23T04:32:27.639Z,0.00
2022-12-23T04:33:27.630Z,0.00
2022-12-23T04:34:27.635Z,0.00
2022-12-23T04:35:27.622Z,0.00
2022-12-23T04:36:27.638Z,0.00
2022-12-23T04:37:27.611Z,0.00
2022-12-23T04:38:27.575Z,0.00
2022-12-23T04:39:27.566Z,0.00
2022-12-23T04:40:27.563Z,0.00
2022-12-23T04:41:27.552Z,0.00
2022-12-23T04:42:27.545Z,0.00
2022-12-23T04:43:27.561Z,0.00
2022-12-23T04:44:27.511Z,0.00
2022-12-23T04:45:27.515Z,0.00
2022-12-23T04:46:27.659Z,0.00
2022-12-23T04:47:27.473Z,0.00
2022-12-23T04:48:27.483Z,0.00
2022-12-23T04:49:27.494Z,0.00
2022-12-23T04:50:27.449Z,0.00
2022-12-23T04:51:27.445Z,0.00
2022-12-23T04:52:27.472Z,0.00
2022-12-23T04:53:27.409Z,0.00
2022-12-23T04:54:27.416Z,0.00
2022-12-23T04:55:27.417Z,0.00
2022-12-23T04:56:27.380Z,0.00
2022-12-23T04:57:27.375Z,0.00
2022-12-23T04:58:27.360Z,0.00
2022-12-23T04:59:27.357Z,0.00
2022-12-23T05:00:27.337Z,0.00
2022-12-23T05:01:27.508Z,0.00
2022-12-23T05:02:27.393Z,0.00
2022-12-23T05:03:27.383Z,0.00
2022-12-23T05:04:27.415Z,0.00
2022-12-23T05:05:27.292Z,0.00
2022-12-23T05:06:27.271Z,0.00
2022-12-23T05:07:27.287Z,0.00
2022-12-23T05:08:27.272Z,0.00
2022-12-23T05:09:27.248Z,0.00
2022-12-23T05:10:27.237Z,0.00
2022-12-23T05:11:27.224Z,0.00
2022-12-23T05:12:27.220Z,0.00
2022-12-23T05:13:27.240Z,0.00
2022-12-23T05:14:27.202Z,0.00
2022-12-23T05:15:27.169Z,0.00
2022-12-23T05:16:27.186Z,0.00
2022-12-23T05:17:27.148Z,0.00
2022-12-23T05:18:27.158Z,0.00
2022-12-23T05:19:27.165Z,0.00
2022-12-23T05:20:27.140Z,0.00
2022-12-23T05:21:27.110Z,0.00
2022-12-23T05:22:27.096Z,0.00
2022-12-23T05:23:27.086Z,0.00
2022-12-23T05:24:27.115Z,0.00
2022-12-23T05:25:27.097Z,0.00
2022-12-23T05:26:27.162Z,0.00
2022-12-23T05:27:27.043Z,0.00
2022-12-23T05:28:27.032Z,0.00
2022-12-23T05:29:27.076Z,0.00
2022-12-23T05:30:27.019Z,0.00
2022-12-23T05:31:27.089Z,0.00
2022-12-23T05:32:27.006Z,0.00
2022-12-23T05:33:27.068Z,0.00
2022-12-23T05:34:26.966Z,0.00
2022-12-23T05:35:26.954Z,0.00
2022-12-23T05:36:26.976Z,0.00
2022-12-23T05:37:26.991Z,0.00
2022-12-23T05:38:26.923Z,0.00
2022-12-23T05:39:26.914Z,0.00
2022-12-23T05:40:27.836Z,0.00
2022-12-23T05:41:27.902Z,0.00
2022-12-23T05:42:26.893Z,0.00
2022-12-23T05:43:26.909Z,0.00
2022-12-23T05:44:26.860Z,0.00
2022-12-23T05:45:26.869Z,0.00
2022-12-23T05:46:27.445Z,0.00
2022-12-23T05:47:26.822Z,0.00
2022-12-23T05:48:26.829Z,0.00
2022-12-23T05:49:26.837Z,0.00
2022-12-23T05:50:26.807Z,0.00
2022-12-23T05:51:26.783Z,0.00
2022-12-23T05:52:26.773Z,0.00
2022-12-23T05:53:26.754Z,0.00
2022-12-23T05:54:26.788Z,0.00
2022-12-23T05:55:26.736Z,0.00
2022-12-23T05:56:26.751Z,0.00
2022-12-23T05:57:26.718Z,0.00
2022-12-23T05:58:26.703Z,0.00
2022-12-23T05:59:31.001Z,0.00
2022-12-23T06:00:27.739Z,0.00
2022-12-23T06:01:26.740Z,0.00
2022-12-23T06:02:26.853Z,0.00
2022-12-23T06:03:26.841Z,0.00
2022-12-23T06:04:26.701Z,0.00
2022-12-23T06:05:26.629Z,0.00
2022-12-23T06:06:26.667Z,0.00
2022-12-23T06:07:26.603Z,0.00
2022-12-23T06:08:26.597Z,0.00
2022-12-23T06:09:26.591Z,0.00
2022-12-23T06:10:26.586Z,0.00
2022-12-23T06:11:26.666Z,0.00
2022-12-23T06:12:26.592Z,0.00
2022-12-23T06:13:26.537Z,0.00
2022-12-23T06:14:29.099Z,0.00
2022-12-23T06:15:26.514Z,0.00
2022-12-23T06:16:26.541Z,0.00
2022-12-23T06:17:26.514Z,0.00
2022-12-23T06:18:26.529Z,0.00
2022-12-23T06:19:26.475Z,0.00
2022-12-23T06:20:26.464Z,0.00
2022-12-23T06:21:26.450Z,0.00
2022-12-23T06:22:26.441Z,0.00
2022-12-23T06:23:26.447Z,0.00
2022-12-23T06:24:26.471Z,0.00
2022-12-23T06:25:26.410Z,0.00
2022-12-23T06:26:26.399Z,0.00
2022-12-23T06:27:26.384Z,0.00
2022-12-23T06:28:26.405Z,0.00
2022-12-23T06:29:26.380Z,4.00
2022-12-23T06:30:26.374Z,0.00
2022-12-23T06:31:26.410Z,0.00
2022-12-23T06:32:26.332Z,4.00
2022-12-23T06:33:26.381Z,0.00
2022-12-23T06:34:26.314Z,4.00
2022-12-23T06:35:26.296Z,4.00
2022-12-23T06:36:26.317Z,8.00
2022-12-23T06:37:26.274Z,8.00
2022-12-23T06:38:26.285Z,8.00
2022-12-23T06:39:26.252Z,8.00
2022-12-23T06:40:26.258Z,12.00
2022-12-23T06:41:26.231Z,12.00
2022-12-23T06:42:26.268Z,12.00
2022-12-23T06:43:26.207Z,16.00
2022-12-23T06:44:26.222Z,20.00
2022-12-23T06:45:26.189Z,20.00
2022-12-23T06:46:26.250Z,28.00
2022-12-23T06:47:26.166Z,28.00
2022-12-23T06:48:26.201Z,36.00
2022-12-23T06:49:26.160Z,40.00
2022-12-23T06:50:26.146Z,48.00
2022-12-23T06:51:26.121Z,52.00
2022-12-23T06:52:26.121Z,64.00
2022-12-23T06:53:26.099Z,72.00
2022-12-23T06:54:26.115Z,80.00
2022-12-23T06:55:26.095Z,84.00
2022-12-23T06:56:26.066Z,92.00
2022-12-23T06:57:26.057Z,96.00
2022-12-23T06:58:26.066Z,108.00
2022-12-23T06:59:26.034Z,116.00
2022-12-23T07:00:26.047Z,124.00
2022-12-23T07:01:26.252Z,136.00
2022-12-23T07:02:26.155Z,148.00
2022-12-23T07:03:26.107Z,160.00
2022-12-23T07:04:25.995Z,168.00
2022-12-23T07:05:25.977Z,188.00
2022-12-23T07:06:25.991Z,204.00
2022-12-23T07:07:25.960Z,232.00
2022-12-23T07:08:25.945Z,268.00
2022-12-23T07:09:25.923Z,300.00
2022-12-23T07:10:25.915Z,332.00
2022-12-23T07:11:25.901Z,364.00
2022-12-23T07:12:25.915Z,416.00
2022-12-23T07:13:25.895Z,480.00
2022-12-23T07:14:25.879Z,532.00
2022-12-23T07:15:25.858Z,576.00
2022-12-23T07:16:25.915Z,632.00
2022-12-23T07:17:25.840Z,692.00
2022-12-23T07:18:25.851Z,716.00
2022-12-23T07:19:25.889Z,676.00
2022-12-23T07:20:25.809Z,588.00
2022-12-23T07:21:29.542Z,496.00
2022-12-23T07:22:25.780Z,436.00
2022-12-23T07:23:25.881Z,412.00
2022-12-23T07:24:25.805Z,412.00
2022-12-23T07:25:25.752Z,412.00
2022-12-23T07:26:25.750Z,432.00
2022-12-23T07:27:25.728Z,460.00
2022-12-23T07:28:25.719Z,488.00
2022-12-23T07:29:25.725Z,504.00
2022-12-23T07:30:25.732Z,520.00
2022-12-23T07:31:25.723Z,532.00
2022-12-23T07:32:25.691Z,552.00
2022-12-23T07:33:25.665Z,596.00
2022-12-23T07:34:25.671Z,656.00
2022-12-23T07:35:25.655Z,732.00
2022-12-23T07:36:25.664Z,824.00
2022-12-23T07:37:25.620Z,920.00
2022-12-23T07:38:25.608Z,1032.00
2022-12-23T07:39:25.610Z,1140.00
2022-12-23T07:40:25.639Z,1244.00
2022-12-23T07:41:25.580Z,1352.00
2022-12-23T07:42:44.080Z,1468.00
2022-12-23T07:43:26.554Z,1604.00
2022-12-23T07:44:25.555Z,1740.00
2022-12-23T07:45:25.538Z,1856.00
2022-12-23T07:46:25.591Z,1932.00
2022-12-23T07:47:25.511Z,1988.00
2022-12-23T07:48:25.648Z,2056.00
2022-12-23T07:49:25.527Z,2160.00
2022-12-23T07:50:25.487Z,2284.00
2022-12-23T07:51:25.493Z,2424.00
2022-12-23T07:52:25.456Z,2612.00
2022-12-23T07:53:25.444Z,2872.00
2022-12-23T07:54:25.463Z,3124.00
2022-12-23T07:55:25.430Z,3244.00
2022-12-23T07:56:25.430Z,3228.00
2022-12-23T07:57:25.407Z,3200.00
2022-12-23T07:58:25.413Z,3164.00
2022-12-23T07:59:25.380Z,3136.00
2022-12-23T08:00:25.491Z,3096.00
2022-12-23T08:01:25.461Z,3072.00
2022-12-23T08:02:25.806Z,3052.00
2022-12-23T08:03:25.410Z,3084.00
2022-12-23T08:04:25.383Z,3152.00
2022-12-23T08:05:25.362Z,3280.00
2022-12-23T08:06:25.354Z,3484.00
2022-12-23T08:07:25.295Z,3740.00
2022-12-23T08:08:25.278Z,4012.00
2022-12-23T08:09:25.280Z,4252.00
2022-12-23T08:10:25.264Z,4460.00
2022-12-23T08:11:25.256Z,4620.00
2022-12-23T08:12:25.277Z,4628.00
2022-12-23T08:13:25.240Z,4552.00
2022-12-23T08:14:25.212Z,4444.00
2022-12-23T08:15:25.207Z,4268.00
2022-12-23T08:16:25.240Z,3892.00
2022-12-23T08:17:25.239Z,3528.00
2022-12-23T08:18:25.201Z,3248.00
2022-12-23T08:19:25.163Z,3044.00
2022-12-23T08:20:25.237Z,2904.00
2022-12-23T08:21:25.141Z,2800.00
2022-12-23T08:22:25.231Z,2708.00
2022-12-23T08:23:25.227Z,2596.00
2022-12-23T08:24:25.143Z,2440.00
2022-12-23T08:25:25.094Z,2264.00
2022-12-23T08:26:25.089Z,2144.00
2022-12-23T08:27:25.076Z,2080.00
2022-12-23T08:28:25.074Z,2080.00
2022-12-23T08:29:25.057Z,2140.00
2022-12-23T08:30:25.146Z,2224.00
2022-12-23T08:31:25.135Z,2328.00
2022-12-23T08:32:25.023Z,2428.00
2022-12-23T08:33:25.013Z,2524.00
2022-12-23T08:34:25.010Z,2616.00
2022-12-23T08:35:24.991Z,2672.00
2022-12-23T08:36:25.016Z,2724.00
2022-12-23T08:37:24.983Z,2824.00
2022-12-23T08:38:24.952Z,2968.00
2022-12-23T08:39:24.945Z,3132.00
2022-12-23T08:40:24.976Z,3268.00
2022-12-23T08:41:24.930Z,3336.00
2022-12-23T08:42:24.965Z,3320.00
2022-12-23T08:43:27.699Z,3248.00
2022-12-23T08:44:25.885Z,3128.00
2022-12-23T08:45:24.880Z,2976.00
2022-12-23T08:46:24.968Z,2820.00
2022-12-23T08:47:24.859Z,2676.00
2022-12-23T08:48:24.876Z,2480.00
2022-12-23T08:49:24.839Z,2208.00
2022-12-23T08:50:24.834Z,1944.00
2022-12-23T08:51:24.819Z,1808.00
2022-12-23T08:52:24.832Z,1824.00
2022-12-23T08:53:24.794Z,1940.00
2022-12-23T08:54:24.801Z,2108.00
2022-12-23T08:55:24.771Z,2264.00
2022-12-23T08:56:24.768Z,2404.00
2022-12-23T08:57:24.755Z,2532.00
2022-12-23T08:58:24.733Z,2656.00
2022-12-23T08:59:24.731Z,2824.00
2022-12-23T09:00:24.733Z,2936.00
2022-12-23T09:01:24.799Z,2924.00
2022-12-23T09:02:24.903Z,2784.00
2022-12-23T09:03:24.825Z,2640.00
2022-12-23T09:04:24.677Z,2672.00
2022-12-23T09:05:24.662Z,2956.00
2022-12-23T09:06:28.847Z,3348.00
2022-12-23T09:07:24.655Z,3596.00
2022-12-23T09:08:24.655Z,3756.00
2022-12-23T09:09:24.648Z,3852.00
2022-12-23T09:10:24.618Z,3888.00
2022-12-23T09:11:24.595Z,3884.00
2022-12-23T09:12:24.642Z,3860.00
2022-12-23T09:13:31.018Z,3796.00
2022-12-23T09:14:25.573Z,3736.00
2022-12-23T09:15:24.576Z,3728.00
2022-12-23T09:16:24.574Z,3800.00
2022-12-23T09:17:24.533Z,3900.00
2022-12-23T09:18:24.569Z,4016.00
2022-12-23T09:19:24.538Z,4136.00
2022-12-23T09:20:24.546Z,4424.00
2022-12-23T09:21:24.567Z,4772.00
2022-12-23T09:22:24.539Z,5076.00
2022-12-23T09:23:24.525Z,5332.00
2022-12-23T09:24:24.554Z,5552.00
2022-12-23T09:25:24.488Z,5768.00
2022-12-23T09:26:26.289Z,5980.00
2022-12-23T09:27:24.423Z,6208.00
2022-12-23T09:28:24.441Z,6372.00
2022-12-23T09:29:24.473Z,6500.00
2022-12-23T09:30:24.438Z,6676.00
2022-12-23T09:31:26.736Z,6880.00
2022-12-23T09:32:24.435Z,7060.00
2022-12-23T09:33:24.415Z,7280.00
2022-12-23T09:34:24.392Z,7548.00
2022-12-23T09:35:24.380Z,7852.00
2022-12-23T09:36:24.401Z,8216.00
2022-12-23T09:37:24.342Z,8604.00
2022-12-23T09:38:25.275Z,8932.00
2022-12-23T09:39:25.352Z,9024.00
2022-12-23T09:40:24.346Z,9104.00
2022-12-23T09:41:24.321Z,9084.00
2022-12-23T09:42:24.312Z,9004.00
2022-12-23T09:43:24.284Z,8888.00
2022-12-23T09:44:24.296Z,8852.00
2022-12-23T09:45:24.292Z,9088.00
2022-12-23T09:46:24.293Z,9652.00
2022-12-23T09:47:24.268Z,10372.00
2022-12-23T09:48:24.272Z,11088.00
2022-12-23T09:49:24.212Z,11728.00
2022-12-23T09:50:24.187Z,12152.00
2022-12-23T09:51:24.198Z,12940.00
2022-12-23T09:52:24.220Z,13476.00
2022-12-23T09:53:24.166Z,13660.00
2022-12-23T09:54:24.178Z,14268.00
2022-12-23T09:55:24.157Z,14328.00
2022-12-23T09:56:24.179Z,14060.00
2022-12-23T09:57:24.175Z,13968.00
2022-12-23T09:58:24.134Z,13804.00
2022-12-23T09:59:24.109Z,14272.00
2022-12-23T10:00:24.158Z,14908.00
2022-12-23T10:01:24.148Z,15176.00
2022-12-23T10:02:24.367Z,15080.00
2022-12-23T10:03:24.290Z,15264.00
2022-12-23T10:04:24.137Z,15412.00
2022-12-23T10:05:24.053Z,15824.00
2022-12-23T10:06:24.109Z,16180.00
2022-12-23T10:07:24.036Z,16736.00
2022-12-23T10:08:24.021Z,17440.00
2022-12-23T10:09:24.032Z,19552.00
2022-12-23T10:10:23.996Z,17920.00
2022-12-23T10:11:23.989Z,18848.00
2022-12-23T10:12:28.251Z,21952.00
2022-12-23T10:13:24.963Z,18592.00
2022-12-23T10:14:23.976Z,18176.00
2022-12-23T10:15:23.907Z,18336.00
2022-12-23T10:16:24.040Z,18304.00
2022-12-23T10:17:23.931Z,16624.00
2022-12-23T10:18:23.899Z,16072.00
2022-12-23T10:19:23.856Z,15672.00
2022-12-23T10:20:23.952Z,14608.00
2022-12-23T10:21:23.835Z,13468.00
2022-12-23T10:22:23.823Z,12812.00
2022-12-23T10:23:23.813Z,13000.00
2022-12-23T10:24:23.872Z,12968.00
2022-12-23T10:25:23.802Z,13288.00
2022-12-23T10:26:23.792Z,13188.00
2022-12-23T10:27:23.785Z,13404.00
2022-12-23T10:28:23.786Z,13172.00
2022-12-23T10:29:24.746Z,13676.00
2022-12-23T10:31:39.890Z,15260.00
2022-12-23T10:32:24.768Z,17312.00
2022-12-23T10:33:23.719Z,21824.00
2022-12-23T10:34:23.696Z,24512.00
2022-12-23T10:35:23.683Z,22720.00
2022-12-23T10:36:23.770Z,24896.00
2022-12-23T10:37:23.672Z,20352.00
2022-12-23T10:38:23.661Z,19168.00
2022-12-23T10:39:23.645Z,18592.00
2022-12-23T10:40:23.625Z,17920.00
2022-12-23T10:41:23.714Z,17216.00
2022-12-23T10:42:23.646Z,16680.00
2022-12-23T10:43:23.856Z,16220.00
2022-12-23T10:44:24.252Z,15784.00
2022-12-23T10:45:23.629Z,15240.00
2022-12-23T10:46:23.692Z,14816.00
2022-12-23T10:47:23.568Z,14420.00
2022-12-23T10:48:23.621Z,14284.00
2022-12-23T10:49:23.555Z,14480.00
2022-12-23T10:50:23.557Z,14760.00
2022-12-23T10:51:23.526Z,14888.00
2022-12-23T10:52:24.236Z,14640.00
2022-12-23T10:53:23.559Z,13824.00
2022-12-23T10:54:24.256Z,13224.00
2022-12-23T10:55:27.240Z,12324.00
2022-12-23T10:56:24.509Z,11316.00
2022-12-23T10:57:23.512Z,10508.00
2022-12-23T10:58:23.508Z,9788.00
2022-12-23T10:59:23.528Z,9216.00
2022-12-23T11:00:24.297Z,9128.00
2022-12-23T11:01:27.204Z,9392.00
2022-12-23T11:02:23.574Z,9936.00
2022-12-23T11:03:23.665Z,10520.00
2022-12-23T11:04:24.235Z,11112.00
2022-12-23T11:05:23.371Z,11644.00
2022-12-23T11:06:23.362Z,12060.00
2022-12-23T11:08:24.337Z,12704.00
2022-12-23T11:09:23.396Z,12908.00
2022-12-23T11:10:23.321Z,12900.00
2022-12-23T11:11:23.292Z,12852.00
2022-12-23T11:12:23.279Z,12904.00
2022-12-23T11:13:23.298Z,12996.00
2022-12-23T11:14:23.316Z,13120.00
2022-12-23T11:15:23.301Z,13036.00
2022-12-23T11:16:23.353Z,12980.00
2022-12-23T11:17:23.244Z,12856.00
2022-12-23T11:18:23.210Z,12588.00
2022-12-23T11:19:23.199Z,12628.00
2022-12-23T11:20:23.231Z,12860.00
2022-12-23T11:21:23.239Z,13124.00
2022-12-23T11:22:23.165Z,13280.00
2022-12-23T11:23:23.219Z,13304.00
2022-12-23T11:24:23.153Z,13652.00
2022-12-23T11:25:23.133Z,14424.00
2022-12-23T11:26:23.214Z,15544.00
2022-12-23T11:27:23.134Z,16532.00
2022-12-23T11:28:23.146Z,16816.00
2022-12-23T11:29:23.109Z,16480.00
2022-12-23T11:30:23.085Z,16048.00
2022-12-23T11:31:23.174Z,16028.00
2022-12-23T11:32:23.086Z,16112.00
2022-12-23T11:33:23.041Z,16072.00
2022-12-23T11:34:23.100Z,14944.00
2022-12-23T11:35:23.061Z,14084.00
2022-12-23T11:36:23.041Z,13992.00
2022-12-23T11:37:23.044Z,14068.00
2022-12-23T11:38:23.012Z,14048.00
2022-12-23T11:39:23.010Z,13828.00
2022-12-23T11:40:23.008Z,13508.00
2022-12-23T11:41:22.993Z,13300.00
2022-12-23T11:42:22.992Z,13348.00
2022-12-23T11:43:22.962Z,13296.00
2022-12-23T11:44:22.940Z,13640.00
2022-12-23T11:45:22.913Z,14096.00
2022-12-23T11:46:22.961Z,14420.00
2022-12-23T11:47:23.015Z,14876.00
2022-12-23T11:48:22.980Z,15424.00
2022-12-23T11:49:22.880Z,16020.00
2022-12-23T11:50:22.898Z,16500.00
2022-12-23T11:51:22.857Z,16636.00
2022-12-23T11:52:22.933Z,16960.00
2022-12-23T11:53:22.881Z,17088.00
2022-12-23T11:54:22.814Z,16396.00
2022-12-23T11:55:22.834Z,16068.00
2022-12-23T11:56:22.849Z,16076.00
2022-12-23T11:57:22.780Z,16072.00
2022-12-23T11:58:22.778Z,15792.00
2022-12-23T11:59:22.808Z,15440.00
2022-12-23T12:00:22.766Z,15056.00
2022-12-23T12:01:22.735Z,14636.00
2022-12-23T12:02:22.828Z,14020.00
2022-12-23T12:03:23.729Z,13412.00
2022-12-23T12:04:22.729Z,12908.00
2022-12-23T12:05:22.813Z,12524.00
2022-12-23T12:06:22.695Z,12388.00
2022-12-23T12:07:22.692Z,12604.00
2022-12-23T12:08:22.679Z,12852.00
2022-12-23T12:09:22.647Z,13144.00
2022-12-23T12:10:22.654Z,13528.00
2022-12-23T12:11:22.636Z,14040.00
2022-12-23T12:12:22.615Z,14656.00
2022-12-23T12:13:22.666Z,15280.00
2022-12-23T12:14:22.599Z,16040.00
2022-12-23T12:15:22.599Z,17184.00
2022-12-23T12:16:22.632Z,18848.00
2022-12-23T12:17:22.557Z,27424.00
2022-12-23T12:18:22.563Z,38688.00
2022-12-23T12:19:22.652Z,40832.00
2022-12-23T12:20:22.553Z,37088.00
2022-12-23T12:21:22.528Z,34496.00
2022-12-23T12:22:22.504Z,30336.00
2022-12-23T12:23:22.495Z,28640.00
2022-12-23T12:24:22.486Z,46304.00
2022-12-23T12:25:22.509Z,50720.00
2022-12-23T12:26:22.473Z,54880.00
2022-12-23T12:27:22.460Z,54240.00
2022-12-23T12:28:22.443Z,31136.00
2022-12-23T12:29:22.440Z,37376.00
2022-12-23T12:30:22.429Z,27456.00
2022-12-23T12:31:22.526Z,36160.00
2022-12-23T12:32:22.428Z,27360.00
2022-12-23T12:33:22.471Z,27616.00
2022-12-23T12:34:22.376Z,32032.00
2022-12-23T12:35:22.361Z,23008.00
2022-12-23T12:36:22.596Z,20800.00
2022-12-23T12:37:22.446Z,20256.00
2022-12-23T12:38:22.367Z,20704.00
2022-12-23T12:39:22.317Z,21248.00
2022-12-23T12:40:22.316Z,21824.00
2022-12-23T12:41:22.303Z,21536.00